sensor_id;sensor_type;location;lat;lon;timestamp;temperature;humidity
1063;DHT22;520;50.932;6.962;2023-07-24T05:38:28;21.20;99.90
1063;DHT22;520;50.932;6.962;2023-07-24T06:45:10;21.70;98.90
1063;DHT22;520;50.932;6.962;2023-07-24T07:08:20;21.90;99.40
1063;DHT22;520;50.932;6.962;2023-07-24T07:15:31;22.20;97.60
1063;DHT22;520;50.932;6.962;2023-07-24T07:23:22;22.10;97.60
1063;DHT22;520;50.932;6.962;2023-07-24T07:26:56;22.00;97.90
1063;DHT22;520;50.932;6.962;2023-07-24T07:30:43;21.90;97.50
1063;DHT22;520;50.932;6.962;2023-07-24T07:42:24;21.80;97.80
1063;DHT22;520;50.932;6.962;2023-07-24T11:56:12;23.00;99.30
1063;DHT22;520;50.932;6.962;2023-07-24T12:22:03;23.40;99.90
1063;DHT22;520;50.932;6.962;2023-07-24T12:24:30;23.80;99.90
1063;DHT22;520;50.932;6.962;2023-07-24T12:26:57;23.70;99.90
1063;DHT22;520;50.932;6.962;2023-07-24T12:29:24;23.60;99.90
1063;DHT22;520;50.932;6.962;2023-07-24T12:31:52;23.40;99.90
1063;DHT22;520;50.932;6.962;2023-07-24T12:34:18;23.20;99.90
1063;DHT22;520;50.932;6.962;2023-07-24T12:36:45;23.10;99.90
1063;DHT22;520;50.932;6.962;2023-07-24T12:39:14;23.00;99.90
1063;DHT22;520;50.932;6.962;2023-07-24T12:41:41;23.00;99.90
1063;DHT22;520;50.932;6.962;2023-07-24T12:44:08;23.20;99.90
1063;DHT22;520;50.932;6.962;2023-07-24T12:46:34;23.10;99.90
1063;DHT22;520;50.932;6.962;2023-07-24T12:49:01;23.20;99.90
1063;DHT22;520;50.932;6.962;2023-07-24T12:51:30;22.80;99.90
1063;DHT22;520;50.932;6.962;2023-07-24T12:53:57;22.60;99.90
1063;DHT22;520;50.932;6.962;2023-07-24T12:56:37;22.50;99.90
1063;DHT22;520;50.932;6.962;2023-07-24T12:59:05;22.40;99.90
1063;DHT22;520;50.932;6.962;2023-07-24T13:01:32;22.30;99.90
1063;DHT22;520;50.932;6.962;2023-07-24T13:04:00;22.20;99.90
1063;DHT22;520;50.932;6.962;2023-07-24T13:06:27;22.10;99.90
1063;DHT22;520;50.932;6.962;2023-07-24T13:08:55;22.30;99.90
1063;DHT22;520;50.932;6.962;2023-07-24T13:11:22;22.50;99.90
1063;DHT22;520;50.932;6.962;2023-07-24T13:13:49;22.80;99.90
1063;DHT22;520;50.932;6.962;2023-07-24T13:16:17;23.20;99.90
1063;DHT22;520;50.932;6.962;2023-07-24T13:18:43;23.50;99.90
1063;DHT22;520;50.932;6.962;2023-07-24T13:21:10;23.90;99.40
1063;DHT22;520;50.932;6.962;2023-07-24T13:23:37;24.10;98.70
1063;DHT22;520;50.932;6.962;2023-07-24T13:26:04;24.00;98.20
1063;DHT22;520;50.932;6.962;2023-07-24T13:28:31;24.00;97.60
1063;DHT22;520;50.932;6.962;2023-07-24T13:30:58;23.90;98.20
1063;DHT22;520;50.932;6.962;2023-07-24T13:33:25;24.10;98.50
1063;DHT22;520;50.932;6.962;2023-07-24T13:35:51;24.40;98.10
1063;DHT22;520;50.932;6.962;2023-07-24T13:38:18;24.60;96.60
1063;DHT22;520;50.932;6.962;2023-07-24T13:40:47;24.50;96.50
1063;DHT22;520;50.932;6.962;2023-07-24T13:43:14;24.90;96.90
1063;DHT22;520;50.932;6.962;2023-07-24T13:45:41;25.70;94.90
1063;DHT22;520;50.932;6.962;2023-07-24T13:48:08;25.50;94.40
1063;DHT22;520;50.932;6.962;2023-07-24T13:50:35;25.50;94.70
1063;DHT22;520;50.932;6.962;2023-07-24T13:53:02;25.30;94.60
1063;DHT22;520;50.932;6.962;2023-07-24T13:55:29;25.30;94.50
1063;DHT22;520;50.932;6.962;2023-07-24T13:57:55;25.30;93.70
1063;DHT22;520;50.932;6.962;2023-07-24T14:00:22;24.70;93.90
1063;DHT22;520;50.932;6.962;2023-07-24T14:02:49;24.20;95.20
1063;DHT22;520;50.932;6.962;2023-07-24T14:05:16;23.70;96.40
1063;DHT22;520;50.932;6.962;2023-07-24T14:07:43;23.40;97.70
1063;DHT22;520;50.932;6.962;2023-07-24T14:10:11;23.30;99.30
1063;DHT22;520;50.932;6.962;2023-07-24T14:12:37;23.20;99.90
1063;DHT22;520;50.932;6.962;2023-07-24T14:15:04;23.40;99.90
1063;DHT22;520;50.932;6.962;2023-07-24T14:17:31;23.20;99.90
1063;DHT22;520;50.932;6.962;2023-07-24T14:19:58;23.10;99.90
1063;DHT22;520;50.932;6.962;2023-07-24T14:22:25;23.00;99.90
1063;DHT22;520;50.932;6.962;2023-07-24T14:24:54;23.00;99.90
1063;DHT22;520;50.932;6.962;2023-07-24T14:27:21;22.90;99.90
1063;DHT22;520;50.932;6.962;2023-07-24T14:29:48;22.80;98.40
1063;DHT22;520;50.932;6.962;2023-07-24T14:32:14;22.70;97.80
1063;DHT22;520;50.932;6.962;2023-07-24T14:34:44;22.70;98.00
1063;DHT22;520;50.932;6.962;2023-07-24T14:37:10;22.80;98.10
1063;DHT22;520;50.932;6.962;2023-07-24T14:39:37;22.70;98.20
1063;DHT22;520;50.932;6.962;2023-07-24T14:42:05;22.70;98.40
1063;DHT22;520;50.932;6.962;2023-07-24T14:44:32;22.70;98.60
1063;DHT22;520;50.932;6.962;2023-07-24T14:46:58;22.70;99.10
1063;DHT22;520;50.932;6.962;2023-07-24T14:49:25;22.70;99.40
1063;DHT22;520;50.932;6.962;2023-07-24T14:51:52;22.70;99.20
1063;DHT22;520;50.932;6.962;2023-07-24T14:54:19;22.70;99.10
1063;DHT22;520;50.932;6.962;2023-07-24T14:56:46;22.80;99.30
1063;DHT22;520;50.932;6.962;2023-07-24T14:59:22;23.10;98.90
1063;DHT22;520;50.932;6.962;2023-07-24T15:01:49;23.00;98.70
1063;DHT22;520;50.932;6.962;2023-07-24T15:04:17;22.90;99.40
1063;DHT22;520;50.932;6.962;2023-07-24T15:06:44;23.00;99.70
1063;DHT22;520;50.932;6.962;2023-07-24T15:09:11;22.90;99.50
1063;DHT22;520;50.932;6.962;2023-07-24T15:11:38;22.90;99.50
1063;DHT22;520;50.932;6.962;2023-07-24T15:14:04;22.90;99.50
1063;DHT22;520;50.932;6.962;2023-07-24T15:16:32;22.90;99.60
1063;DHT22;520;50.932;6.962;2023-07-24T15:18:58;22.90;99.60
1063;DHT22;520;50.932;6.962;2023-07-24T15:21:26;22.90;99.50
1063;DHT22;520;50.932;6.962;2023-07-24T15:23:55;23.40;99.10
1063;DHT22;520;50.932;6.962;2023-07-24T15:31:51;23.10;98.00
1063;DHT22;520;50.932;6.962;2023-07-24T15:36:53;23.00;97.80
1063;DHT22;520;50.932;6.962;2023-07-24T15:39:21;22.90;97.40
1063;DHT22;520;50.932;6.962;2023-07-24T15:41:47;22.90;97.10
1063;DHT22;520;50.932;6.962;2023-07-24T15:44:14;22.90;97.30
1063;DHT22;520;50.932;6.962;2023-07-24T15:46:41;22.90;96.90
1063;DHT22;520;50.932;6.962;2023-07-24T15:49:10;23.00;96.90
1063;DHT22;520;50.932;6.962;2023-07-24T15:51:38;23.10;96.70
1063;DHT22;520;50.932;6.962;2023-07-24T15:54:14;23.10;96.70
1063;DHT22;520;50.932;6.962;2023-07-24T15:56:50;23.00;95.90
1063;DHT22;520;50.932;6.962;2023-07-24T15:59:17;22.90;95.90
1063;DHT22;520;50.932;6.962;2023-07-24T16:01:43;22.90;95.90
1063;DHT22;520;50.932;6.962;2023-07-24T16:04:10;22.80;95.90
1063;DHT22;520;50.932;6.962;2023-07-24T16:06:37;22.90;95.90
1063;DHT22;520;50.932;6.962;2023-07-24T16:09:05;22.90;95.80
1063;DHT22;520;50.932;6.962;2023-07-24T16:11:44;22.90;95.60
1063;DHT22;520;50.932;6.962;2023-07-24T16:14:13;22.90;95.60
1063;DHT22;520;50.932;6.962;2023-07-24T16:16:40;22.90;95.40
1063;DHT22;520;50.932;6.962;2023-07-24T16:21:47;23.10;95.00
1063;DHT22;520;50.932;6.962;2023-07-24T16:24:15;23.10;94.50
1063;DHT22;520;50.932;6.962;2023-07-24T16:26:47;23.00;94.10
1063;DHT22;520;50.932;6.962;2023-07-24T16:29:14;22.90;93.30
1063;DHT22;520;50.932;6.962;2023-07-24T16:31:41;22.80;93.00
1063;DHT22;520;50.932;6.962;2023-07-24T16:34:09;22.80;93.00
1063;DHT22;520;50.932;6.962;2023-07-24T16:36:39;22.70;92.60
1063;DHT22;520;50.932;6.962;2023-07-24T16:42:15;22.70;92.80
1063;DHT22;520;50.932;6.962;2023-07-24T16:47:28;22.70;92.10
1063;DHT22;520;50.932;6.962;2023-07-24T16:49:55;22.70;92.20
1063;DHT22;520;50.932;6.962;2023-07-24T16:52:22;22.80;91.20
1063;DHT22;520;50.932;6.962;2023-07-24T16:54:49;22.80;91.10
1063;DHT22;520;50.932;6.962;2023-07-24T16:57:17;22.80;90.50
1063;DHT22;520;50.932;6.962;2023-07-24T16:59:44;22.70;90.20
1063;DHT22;520;50.932;6.962;2023-07-24T17:02:11;22.60;90.30
1063;DHT22;520;50.932;6.962;2023-07-24T17:04:40;22.50;90.20
1063;DHT22;520;50.932;6.962;2023-07-24T17:07:10;22.50;90.40
1063;DHT22;520;50.932;6.962;2023-07-24T17:09:37;22.40;91.80
1063;DHT22;520;50.932;6.962;2023-07-24T17:12:04;22.00;93.40
1063;DHT22;520;50.932;6.962;2023-07-24T17:14:32;21.80;94.40
1063;DHT22;520;50.932;6.962;2023-07-24T17:16:59;21.60;95.80
1063;DHT22;520;50.932;6.962;2023-07-24T17:19:26;21.40;96.90
1063;DHT22;520;50.932;6.962;2023-07-24T17:21:53;21.10;97.90
1063;DHT22;520;50.932;6.962;2023-07-24T17:24:20;21.10;99.60
1063;DHT22;520;50.932;6.962;2023-07-24T17:26:47;21.10;99.90
1063;DHT22;520;50.932;6.962;2023-07-24T17:29:14;21.00;99.90
1063;DHT22;520;50.932;6.962;2023-07-24T17:31:41;20.80;99.90
1063;DHT22;520;50.932;6.962;2023-07-24T17:34:09;20.50;99.90
1063;DHT22;520;50.932;6.962;2023-07-24T17:36:36;20.40;99.90
1063;DHT22;520;50.932;6.962;2023-07-24T17:39:03;20.40;99.90
1063;DHT22;520;50.932;6.962;2023-07-24T17:41:30;20.40;99.90
1063;DHT22;520;50.932;6.962;2023-07-24T17:43:57;20.30;99.90
1063;DHT22;520;50.932;6.962;2023-07-24T17:46:24;20.30;99.90
1063;DHT22;520;50.932;6.962;2023-07-24T17:48:51;20.30;99.90
1063;DHT22;520;50.932;6.962;2023-07-24T17:51:17;20.30;99.90
1063;DHT22;520;50.932;6.962;2023-07-24T17:53:45;20.30;99.90
1063;DHT22;520;50.932;6.962;2023-07-24T17:56:12;20.30;99.90
1063;DHT22;520;50.932;6.962;2023-07-24T17:58:39;20.20;99.90
1063;DHT22;520;50.932;6.962;2023-07-24T18:01:06;20.00;99.90
1063;DHT22;520;50.932;6.962;2023-07-24T18:03:34;20.00;99.90
1063;DHT22;520;50.932;6.962;2023-07-24T18:06:02;20.00;99.90
1063;DHT22;520;50.932;6.962;2023-07-24T18:08:29;19.90;99.90
1063;DHT22;520;50.932;6.962;2023-07-24T18:10:56;20.00;99.90
1063;DHT22;520;50.932;6.962;2023-07-24T18:13:23;20.00;99.90
1063;DHT22;520;50.932;6.962;2023-07-24T18:15:50;20.10;99.90
1063;DHT22;520;50.932;6.962;2023-07-24T18:26:17;20.10;99.90
1063;DHT22;520;50.932;6.962;2023-07-24T18:28:44;20.10;99.90
1063;DHT22;520;50.932;6.962;2023-07-24T18:31:11;20.30;99.90
1063;DHT22;520;50.932;6.962;2023-07-24T18:33:38;20.20;99.90
1063;DHT22;520;50.932;6.962;2023-07-24T18:36:04;20.10;99.90
1063;DHT22;520;50.932;6.962;2023-07-24T18:38:34;20.10;99.90
1063;DHT22;520;50.932;6.962;2023-07-24T18:41:02;20.10;99.90
1063;DHT22;520;50.932;6.962;2023-07-24T18:43:29;20.10;99.90
1063;DHT22;520;50.932;6.962;2023-07-24T18:45:55;20.10;99.90
1063;DHT22;520;50.932;6.962;2023-07-24T18:48:23;20.10;99.90
1063;DHT22;520;50.932;6.962;2023-07-24T18:50:52;20.10;99.90
1063;DHT22;520;50.932;6.962;2023-07-24T18:53:21;20.00;99.90
1063;DHT22;520;50.932;6.962;2023-07-24T18:55:50;20.00;99.90
1063;DHT22;520;50.932;6.962;2023-07-24T18:58:33;20.00;99.90
1063;DHT22;520;50.932;6.962;2023-07-24T19:01:13;20.30;99.90
1063;DHT22;520;50.932;6.962;2023-07-24T19:03:39;20.40;99.90
1063;DHT22;520;50.932;6.962;2023-07-24T19:06:09;20.20;99.90
1063;DHT22;520;50.932;6.962;2023-07-24T19:08:36;20.00;99.90
1063;DHT22;520;50.932;6.962;2023-07-24T19:11:02;20.00;99.90
1063;DHT22;520;50.932;6.962;2023-07-24T19:13:29;19.90;99.90
1063;DHT22;520;50.932;6.962;2023-07-24T19:15:58;19.80;99.90
1063;DHT22;520;50.932;6.962;2023-07-24T19:18:25;19.70;99.90
1063;DHT22;520;50.932;6.962;2023-07-24T19:20:52;19.70;99.90
1063;DHT22;520;50.932;6.962;2023-07-24T19:23:19;19.60;99.90
1063;DHT22;520;50.932;6.962;2023-07-24T19:25:46;19.60;99.90
1063;DHT22;520;50.932;6.962;2023-07-24T19:28:13;19.50;99.90
1063;DHT22;520;50.932;6.962;2023-07-24T19:30:39;19.50;99.90
1063;DHT22;520;50.932;6.962;2023-07-24T19:33:06;19.50;99.90
1063;DHT22;520;50.932;6.962;2023-07-24T19:35:33;19.50;99.90
1063;DHT22;520;50.932;6.962;2023-07-24T19:38:00;19.50;99.90
1063;DHT22;520;50.932;6.962;2023-07-24T19:40:27;19.50;99.90
1063;DHT22;520;50.932;6.962;2023-07-24T19:42:55;19.50;99.90
1063;DHT22;520;50.932;6.962;2023-07-24T19:45:22;19.50;99.90
1063;DHT22;520;50.932;6.962;2023-07-24T19:47:49;19.50;99.90
1063;DHT22;520;50.932;6.962;2023-07-24T19:50:16;19.40;99.90
1063;DHT22;520;50.932;6.962;2023-07-24T19:52:43;19.40;99.90
1063;DHT22;520;50.932;6.962;2023-07-24T19:55:17;19.40;99.90
1063;DHT22;520;50.932;6.962;2023-07-24T19:57:44;19.40;99.90
1063;DHT22;520;50.932;6.962;2023-07-24T20:00:12;19.50;99.90
1063;DHT22;520;50.932;6.962;2023-07-24T20:02:39;19.40;99.90
1063;DHT22;520;50.932;6.962;2023-07-24T20:05:06;19.40;99.90
1063;DHT22;520;50.932;6.962;2023-07-24T20:07:33;19.40;99.90
1063;DHT22;520;50.932;6.962;2023-07-24T20:09:59;19.40;99.90
1063;DHT22;520;50.932;6.962;2023-07-24T20:12:27;19.40;99.90
1063;DHT22;520;50.932;6.962;2023-07-24T20:14:53;19.30;99.90
1063;DHT22;520;50.932;6.962;2023-07-24T20:17:20;19.30;99.90
1063;DHT22;520;50.932;6.962;2023-07-24T20:19:47;19.30;99.90
1063;DHT22;520;50.932;6.962;2023-07-24T20:22:14;19.30;99.90
1063;DHT22;520;50.932;6.962;2023-07-24T20:24:41;19.30;99.90
1063;DHT22;520;50.932;6.962;2023-07-24T20:27:08;19.30;99.90
1063;DHT22;520;50.932;6.962;2023-07-24T20:29:34;19.30;99.90
1063;DHT22;520;50.932;6.962;2023-07-24T20:32:02;19.30;99.90
1063;DHT22;520;50.932;6.962;2023-07-24T20:34:29;19.40;99.90
1063;DHT22;520;50.932;6.962;2023-07-24T20:36:56;19.40;99.90
1063;DHT22;520;50.932;6.962;2023-07-24T20:39:23;19.30;99.90
1063;DHT22;520;50.932;6.962;2023-07-24T20:41:50;19.40;99.90
1063;DHT22;520;50.932;6.962;2023-07-24T20:44:16;19.40;99.90
1063;DHT22;520;50.932;6.962;2023-07-24T20:46:43;19.30;99.90
1063;DHT22;520;50.932;6.962;2023-07-24T20:49:10;19.30;99.90
1063;DHT22;520;50.932;6.962;2023-07-24T20:51:38;19.30;99.90
1063;DHT22;520;50.932;6.962;2023-07-24T20:54:05;19.30;99.90
1063;DHT22;520;50.932;6.962;2023-07-24T20:56:32;19.30;99.90
1063;DHT22;520;50.932;6.962;2023-07-24T20:59:00;19.30;99.90
1063;DHT22;520;50.932;6.962;2023-07-24T21:01:26;19.30;99.90
1063;DHT22;520;50.932;6.962;2023-07-24T21:03:55;19.30;99.90
1063;DHT22;520;50.932;6.962;2023-07-24T21:06:22;19.30;99.90
1063;DHT22;520;50.932;6.962;2023-07-24T21:08:49;19.40;99.90
1063;DHT22;520;50.932;6.962;2023-07-24T21:11:17;19.30;99.90
1063;DHT22;520;50.932;6.962;2023-07-24T21:13:44;19.30;99.90
1063;DHT22;520;50.932;6.962;2023-07-24T21:16:11;19.30;99.90
1063;DHT22;520;50.932;6.962;2023-07-24T21:18:39;19.30;99.90
1063;DHT22;520;50.932;6.962;2023-07-24T21:21:06;19.30;99.90
1063;DHT22;520;50.932;6.962;2023-07-24T21:23:34;19.30;99.90
1063;DHT22;520;50.932;6.962;2023-07-24T21:26:01;19.30;99.90
1063;DHT22;520;50.932;6.962;2023-07-24T21:28:27;19.30;99.90
1063;DHT22;520;50.932;6.962;2023-07-24T21:43:58;19.20;99.90
1063;DHT22;520;50.932;6.962;2023-07-24T22:04:10;19.00;99.90
1063;DHT22;520;50.932;6.962;2023-07-24T22:27:48;18.90;99.90
1063;DHT22;520;50.932;6.962;2023-07-24T22:54:48;18.80;99.90
1063;DHT22;520;50.932;6.962;2023-07-24T22:58:05;18.80;99.90
1063;DHT22;520;50.932;6.962;2023-07-24T23:05:07;18.80;99.90
1063;DHT22;520;50.932;6.962;2023-07-24T23:11:48;18.80;99.90
1063;DHT22;520;50.932;6.962;2023-07-24T23:19:12;18.80;99.90
1063;DHT22;520;50.932;6.962;2023-07-24T23:22:40;18.90;99.90
1063;DHT22;520;50.932;6.962;2023-07-24T23:33:28;18.80;99.90
1063;DHT22;520;50.932;6.962;2023-07-24T23:37:15;18.70;99.90
1063;DHT22;520;50.932;6.962;2023-07-24T23:48:45;18.70;99.90
1063;DHT22;520;50.932;6.962;2023-07-24T23:55:11;18.60;99.90
1063;DHT22;520;50.932;6.962;2023-07-24T23:58:26;18.60;99.90
